This is the latest recevied weather packets stored in our database for station/object K6TTR. If no packets are shown the sender has not sent any weather packets the latest 10 day(s).
| Time | Temp. | Humidity | Pressure | Rain* | Wind** | Luminosity | Snow |
|---|---|---|---|---|---|---|---|
| 1777851815 | 13.89° C | 52% | 1012.7 hPa | 0 mm | - | 169 W/m² | - |
| 1777851519 | 14.44° C | 51% | 1012.7 hPa | 0 mm | - | 134 W/m² | - |
| 1777851226 | 15° C | 50% | 1012.5 hPa | 0 mm | - | 153 W/m² | - |
| 1777850911 | 15° C | 50% | 1012.5 hPa | 0 mm | - | 269 W/m² | - |
| 1777850619 | 15° C | 49% | 1012.1 hPa | 0 mm | - | 258 W/m² | - |
| 1777850324 | 15.56° C | 49% | 1012.2 hPa | 0 mm | - | 234 W/m² | - |
| 1777850028 | 16.67° C | 46% | 1012 hPa | 0 mm | - | 148 W/m² | - |
| 1777849711 | 17.78° C | 43% | 1011 hPa | 0 mm | - | 98 W/m² | - |
| 1777849416 | 19.44° C | 38% | 1011.3 hPa | 0 mm | - | 83 W/m² | - |
| 1777849120 | 20° C | 32% | 1010.5 hPa | 0 mm | - | 156 W/m² | - |
| 1777848826 | 20° C | 33% | 1010.3 hPa | 0 mm | - | 438 W/m² | - |
| 1777848529 | 20° C | 33% | 1010.3 hPa | 0 mm | - | 397 W/m² | - |
| 1777848213 | 20° C | 33% | 1010.4 hPa | 0 mm | - | 355 W/m² | - |
| 1777847916 | 20° C | 32% | 1010.5 hPa | 0 mm | - | 731 W/m² | - |
| 1777847622 | 20° C | 33% | 1010.5 hPa | 0 mm | - | 608 W/m² | - |
| 1777847329 | 19.44° C | 32% | 1010.6 hPa | 0 mm | - | 369 W/m² | - |
| 1777847012 | 20° C | 33% | 1010.7 hPa | 0 mm | - | 329 W/m² | - |
| 1777846716 | 20° C | 32% | 1010.7 hPa | 0 mm | - | 367 W/m² | - |
| 1777846423 | 20° C | 32% | 1010.8 hPa | 0 mm | - | 359 W/m² | - |
| 1777846129 | 20.56° C | 33% | 1010.7 hPa | 0 mm | - | 424 W/m² | - |
| 1777845815 | 20.56° C | 33% | 1010.6 hPa | 0 mm | - | 362 W/m² | - |
| 1777845520 | 20.56° C | 32% | 1011.4 hPa | 0 mm | - | 568 W/m² | - |
| 1777845226 | 21.11° C | 31% | 1010.7 hPa | 0 mm | - | 652 W/m² | - |
| 1777844911 | 20.56° C | 32% | 1010.8 hPa | 0 mm | - | 798 W/m² | - |
| 1777844615 | 20.56° C | 32% | 1010.9 hPa | 0 mm | - | 872 W/m² | - |
* Rain latest hour (hover to see other rain measurements)
** Current wind speed in m/s (hover to see current wind gust speed)